createdAt,value
2023-02-17T00:01:01.282Z,67.86
2023-02-17T00:02:32.955Z,68.05
2023-02-17T00:04:04.771Z,68.07
2023-02-17T00:05:39.380Z,67.97
2023-02-17T00:07:11.141Z,68.14
2023-02-17T00:08:43.786Z,67.88
2023-02-17T00:10:15.559Z,68.26
2023-02-17T00:11:47.204Z,68.01
2023-02-17T00:13:18.832Z,68.20
2023-02-17T00:14:50.603Z,68.60
2023-02-17T00:16:25.037Z,67.50
2023-02-17T00:17:56.770Z,68.13
2023-02-17T00:19:28.366Z,67.67
2023-02-17T00:21:00.092Z,67.63
2023-02-17T00:22:31.693Z,67.52
2023-02-17T00:24:03.437Z,67.72
2023-02-17T00:25:35.112Z,67.79
2023-02-17T00:27:07.151Z,67.13
2023-02-17T00:28:39.057Z,67.18
2023-02-17T00:30:11.028Z,66.98
2023-02-17T00:31:43.406Z,66.67
2023-02-17T00:33:15.113Z,67.15
2023-02-17T00:34:47.316Z,67.45
2023-02-17T00:36:20.907Z,67.16
2023-02-17T00:37:52.539Z,67.37
2023-02-17T00:39:24.158Z,67.02
2023-02-17T00:40:55.832Z,67.00
2023-02-17T00:42:28.777Z,66.91
2023-02-17T00:44:04.103Z,67.23
2023-02-17T00:45:35.808Z,66.52
2023-02-17T00:47:07.553Z,66.31
2023-02-17T00:48:39.632Z,66.72
2023-02-17T00:50:11.435Z,67.23
2023-02-17T00:51:44.173Z,67.46
2023-02-17T00:53:15.875Z,66.93
2023-02-17T00:54:47.519Z,66.52
2023-02-17T00:56:19.094Z,66.90
2023-02-17T00:57:50.761Z,66.17
2023-02-17T00:59:22.481Z,65.01
2023-02-17T01:00:57.638Z,63.46
2023-02-17T01:02:29.263Z,62.82
2023-02-17T01:04:01.325Z,61.66
2023-02-17T01:05:33.320Z,61.00
2023-02-17T01:07:05.021Z,60.72
2023-02-17T01:08:37.110Z,60.55
2023-02-17T01:10:10.454Z,59.61
2023-02-17T01:11:42.918Z,59.83
2023-02-17T01:13:16.615Z,59.32
2023-02-17T01:14:48.634Z,59.53
2023-02-17T01:16:27.652Z,60.04
2023-02-17T01:17:59.358Z,59.94
2023-02-17T01:19:31.381Z,60.17
2023-02-17T01:21:03.080Z,59.92
2023-02-17T01:22:34.786Z,60.38
2023-02-17T01:24:08.563Z,61.06
2023-02-17T01:25:42.476Z,61.28
2023-02-17T01:27:14.291Z,61.41
2023-02-17T01:28:46.487Z,60.88
2023-02-17T01:30:18.517Z,60.91
2023-02-17T01:31:50.759Z,60.94
2023-02-17T01:33:22.548Z,61.41
2023-02-17T01:34:54.193Z,60.80
2023-02-17T01:36:25.976Z,60.25
2023-02-17T01:37:57.654Z,59.55
2023-02-17T01:39:29.296Z,58.52
2023-02-17T01:41:01.008Z,59.45
2023-02-17T01:42:32.719Z,59.58
2023-02-17T01:44:18.545Z,59.87
2023-02-17T01:45:58.822Z,60.28
2023-02-17T01:47:30.442Z,60.20
2023-02-17T01:49:05.062Z,60.13
2023-02-17T01:50:52.899Z,59.79
2023-02-17T01:52:26.697Z,59.75
2023-02-17T01:54:04.437Z,59.98
2023-02-17T01:55:39.648Z,60.07
2023-02-17T01:57:15.043Z,60.99
2023-02-17T01:58:53.432Z,60.93
2023-02-17T02:00:27.532Z,61.13
2023-02-17T02:02:03.389Z,60.59
2023-02-17T02:03:38.276Z,60.89
2023-02-17T02:05:11.977Z,60.59
2023-02-17T02:06:44.986Z,59.56
2023-02-17T02:08:16.896Z,59.63
2023-02-17T02:09:54.335Z,60.91
2023-02-17T02:11:25.959Z,59.91
2023-02-17T02:12:57.653Z,60.33
2023-02-17T02:14:29.669Z,60.50
2023-02-17T02:16:14.550Z,60.96
2023-02-17T02:18:07.158Z,60.89
2023-02-17T02:19:53.052Z,59.41
2023-02-17T02:21:36.730Z,59.50
2023-02-17T02:23:30.231Z,60.40
2023-02-17T02:25:30.471Z,60.06
2023-02-17T02:27:04.981Z,59.51
2023-02-17T02:28:58.328Z,59.73
2023-02-17T02:30:45.263Z,59.82
2023-02-17T02:32:45.167Z,59.94
2023-02-17T02:34:21.893Z,60.33
2023-02-17T02:36:09.920Z,60.61
2023-02-17T02:37:53.670Z,60.31
2023-02-17T02:39:32.761Z,60.90
2023-02-17T02:41:12.962Z,60.58
2023-02-17T02:42:45.539Z,60.30
2023-02-17T02:44:19.474Z,60.13
2023-02-17T02:45:51.164Z,60.66
2023-02-17T02:47:42.509Z,61.12
2023-02-17T02:49:14.522Z,61.31
2023-02-17T02:50:52.387Z,61.43
2023-02-17T02:52:45.453Z,61.19
2023-02-17T02:54:22.528Z,62.00
2023-02-17T02:56:31.582Z,62.12
2023-02-17T02:58:22.220Z,63.05
2023-02-17T03:00:12.163Z,63.52
2023-02-17T03:02:11.635Z,63.42
2023-02-17T03:03:59.342Z,63.88
2023-02-17T03:06:08.150Z,63.59
2023-02-17T03:07:58.356Z,63.12
2023-02-17T03:09:30.911Z,63.64
2023-02-17T03:11:02.948Z,63.90
2023-02-17T03:12:38.626Z,64.72
2023-02-17T03:14:15.050Z,65.39
2023-02-17T03:15:47.376Z,65.93
2023-02-17T03:17:19.062Z,66.20
2023-02-17T03:18:54.645Z,66.13
2023-02-17T03:20:29.872Z,66.16
2023-02-17T03:22:09.748Z,65.68
2023-02-17T03:23:41.565Z,66.50
2023-02-17T03:25:13.402Z,66.64
2023-02-17T03:26:45.824Z,66.74
2023-02-17T03:28:18.622Z,66.99
2023-02-17T03:29:51.016Z,67.00
2023-02-17T03:31:24.265Z,67.57
2023-02-17T03:32:56.058Z,67.36
2023-02-17T03:34:27.718Z,67.41
2023-02-17T03:35:59.328Z,67.50
2023-02-17T03:37:31.074Z,67.52
2023-02-17T03:39:02.846Z,68.02
2023-02-17T03:40:34.525Z,67.55
2023-02-17T03:42:06.412Z,67.83
2023-02-17T03:43:38.078Z,68.08
2023-02-17T03:45:10.128Z,67.27
2023-02-17T03:46:41.774Z,67.52
2023-02-17T03:48:13.432Z,67.56
2023-02-17T03:49:45.066Z,68.00
2023-02-17T03:51:19.700Z,67.70
2023-02-17T03:52:51.380Z,68.40
2023-02-17T03:54:23.033Z,68.53
2023-02-17T03:55:54.743Z,68.45
2023-02-17T03:57:26.483Z,67.73
2023-02-17T03:58:58.263Z,67.20
2023-02-17T04:00:29.988Z,68.31
2023-02-17T04:02:01.681Z,68.62
2023-02-17T04:03:34.059Z,68.67
2023-02-17T04:05:05.959Z,69.05
2023-02-17T04:06:37.660Z,68.98
2023-02-17T04:08:09.201Z,69.54
2023-02-17T04:09:40.872Z,68.99
2023-02-17T04:11:12.462Z,69.54
2023-02-17T04:12:44.123Z,70.07
2023-02-17T04:14:15.721Z,70.52
2023-02-17T04:15:47.680Z,71.15
2023-02-17T04:17:19.289Z,70.91
2023-02-17T04:18:50.903Z,70.76
2023-02-17T04:20:22.521Z,70.59
2023-02-17T04:21:54.136Z,71.11
2023-02-17T04:23:26.025Z,70.64
2023-02-17T04:24:57.582Z,70.49
2023-02-17T04:26:29.759Z,71.00
2023-02-17T04:28:03.008Z,71.69
2023-02-17T04:29:34.867Z,71.41
2023-02-17T04:31:06.904Z,71.64
2023-02-17T04:32:38.535Z,72.05
2023-02-17T04:34:10.122Z,72.11
2023-02-17T04:35:42.114Z,72.52
2023-02-17T04:37:13.709Z,72.65
2023-02-17T04:38:45.389Z,72.50
2023-02-17T04:40:18.069Z,72.98
2023-02-17T04:41:49.757Z,72.97
2023-02-17T04:43:22.461Z,72.85
2023-02-17T04:44:54.084Z,73.00
2023-02-17T04:46:25.773Z,72.93
2023-02-17T04:47:57.417Z,72.92
2023-02-17T04:49:28.994Z,73.33
2023-02-17T04:51:00.639Z,72.96
2023-02-17T04:52:32.294Z,72.96
2023-02-17T04:54:04.161Z,72.01
2023-02-17T04:55:35.920Z,71.61
2023-02-17T04:57:07.560Z,71.89
2023-02-17T04:58:39.196Z,71.76
2023-02-17T05:00:12.042Z,71.81
2023-02-17T05:01:43.721Z,72.18
2023-02-17T05:03:16.422Z,71.88
2023-02-17T05:04:48.468Z,72.08
2023-02-17T05:06:20.151Z,72.84
2023-02-17T05:07:51.924Z,73.04
2023-02-17T05:09:23.509Z,72.60
2023-02-17T05:10:55.222Z,72.64
2023-02-17T05:12:26.857Z,72.96
2023-02-17T05:13:58.512Z,72.81
2023-02-17T05:15:30.230Z,73.72
2023-02-17T05:17:01.864Z,73.70
2023-02-17T05:18:33.494Z,73.78
2023-02-17T05:20:06.322Z,74.25
2023-02-17T05:21:38.182Z,74.15
2023-02-17T05:23:09.888Z,74.07
2023-02-17T05:24:41.470Z,74.54
2023-02-17T05:26:13.818Z,74.42
2023-02-17T05:27:45.481Z,74.15
2023-02-17T05:29:17.184Z,73.84
2023-02-17T05:30:49.978Z,74.52
2023-02-17T05:32:23.130Z,74.39
2023-02-17T05:33:55.296Z,74.57
2023-02-17T05:35:26.938Z,74.32
2023-02-17T05:36:59.045Z,75.11
2023-02-17T05:38:30.725Z,75.26
2023-02-17T05:40:02.440Z,75.51
2023-02-17T05:41:34.149Z,75.74
2023-02-17T05:43:05.792Z,75.67
2023-02-17T05:44:37.498Z,75.68
2023-02-17T05:46:09.538Z,75.72
2023-02-17T05:47:41.387Z,76.14
2023-02-17T05:49:13.068Z,75.95
2023-02-17T05:50:44.730Z,75.94
2023-02-17T05:52:18.216Z,76.12
2023-02-17T05:53:49.853Z,76.41
2023-02-17T05:55:22.656Z,76.61
2023-02-17T05:56:54.322Z,76.88
2023-02-17T05:58:27.279Z,76.78
2023-02-17T05:59:58.890Z,77.02
2023-02-17T06:01:30.547Z,76.76
2023-02-17T06:03:02.215Z,76.98
2023-02-17T06:04:33.980Z,76.92
2023-02-17T06:06:06.314Z,76.68
2023-02-17T06:07:38.602Z,77.44
2023-02-17T06:09:10.180Z,77.45
2023-02-17T06:10:42.818Z,77.30
2023-02-17T06:12:14.537Z,77.08
2023-02-17T06:13:46.148Z,77.35
2023-02-17T06:15:17.928Z,76.84
2023-02-17T06:16:49.724Z,77.45
2023-02-17T06:18:21.376Z,77.06
2023-02-17T06:19:53.141Z,77.01
2023-02-17T06:21:24.812Z,76.88
2023-02-17T06:22:56.398Z,76.80
2023-02-17T06:24:28.093Z,77.15
2023-02-17T06:25:59.764Z,76.62
2023-02-17T06:27:31.466Z,77.00
2023-02-17T06:29:03.540Z,76.81
2023-02-17T06:30:35.267Z,76.92
2023-02-17T06:32:07.818Z,76.92
2023-02-17T06:33:39.560Z,76.88
2023-02-17T06:35:11.232Z,77.28
2023-02-17T06:36:42.774Z,76.93
2023-02-17T06:38:14.367Z,76.71
2023-02-17T06:39:46.009Z,76.17
2023-02-17T06:41:17.616Z,76.08
2023-02-17T06:42:49.251Z,76.04
2023-02-17T06:44:20.868Z,75.52
2023-02-17T06:45:52.645Z,75.77
2023-02-17T06:47:24.296Z,75.38
2023-02-17T06:48:55.970Z,74.81
2023-02-17T06:50:27.886Z,74.23
2023-02-17T06:51:59.524Z,74.18
2023-02-17T06:53:31.116Z,74.70
2023-02-17T06:55:02.964Z,74.64
2023-02-17T06:56:36.507Z,75.17
2023-02-17T06:58:08.396Z,75.11
2023-02-17T06:59:40.046Z,74.89
2023-02-17T07:01:20.506Z,74.61
2023-02-17T07:02:52.212Z,74.88
2023-02-17T07:04:24.066Z,74.46
2023-02-17T07:05:59.777Z,74.76
2023-02-17T07:07:31.399Z,75.03
2023-02-17T07:09:03.412Z,74.12
2023-02-17T07:10:37.181Z,73.60
2023-02-17T07:12:08.874Z,73.90
2023-02-17T07:13:41.195Z,74.06
2023-02-17T07:15:13.230Z,74.44
2023-02-17T07:16:44.981Z,74.36
2023-02-17T07:18:16.705Z,74.48
2023-02-17T07:19:48.412Z,74.26
2023-02-17T07:21:19.995Z,73.80
2023-02-17T07:22:51.556Z,73.44
2023-02-17T07:24:23.175Z,73.12
2023-02-17T07:25:54.861Z,72.92
2023-02-17T07:27:26.725Z,72.07
2023-02-17T07:28:58.623Z,71.82
2023-02-17T07:30:30.411Z,71.44
2023-02-17T07:32:02.211Z,71.51
2023-02-17T07:33:35.141Z,70.91
2023-02-17T07:35:07.105Z,70.81
2023-02-17T07:36:38.762Z,69.91
2023-02-17T07:38:11.103Z,70.19
2023-02-17T07:39:42.746Z,70.54
2023-02-17T07:41:19.825Z,70.15
2023-02-17T07:42:51.538Z,69.53
2023-02-17T07:44:23.726Z,69.53
2023-02-17T07:45:57.655Z,68.90
2023-02-17T07:47:32.555Z,69.08
2023-02-17T07:49:04.232Z,69.44
2023-02-17T07:50:35.857Z,69.27
2023-02-17T07:52:07.551Z,68.86
2023-02-17T07:53:39.860Z,68.99
2023-02-17T07:55:11.793Z,69.08
2023-02-17T07:56:43.545Z,69.04
2023-02-17T07:58:15.175Z,68.74
2023-02-17T07:59:48.107Z,68.87
2023-02-17T08:01:22.298Z,68.57
2023-02-17T08:02:53.977Z,68.78
2023-02-17T08:04:25.790Z,68.96
2023-02-17T08:05:57.526Z,68.15
2023-02-17T08:07:29.234Z,67.19
2023-02-17T08:09:19.508Z,67.78
2023-02-17T08:11:09.866Z,67.49
2023-02-17T08:13:00.278Z,66.55
2023-02-17T08:14:33.300Z,66.74
2023-02-17T08:16:05.593Z,66.26
2023-02-17T08:17:37.955Z,65.62
2023-02-17T08:19:09.724Z,65.86
2023-02-17T08:20:41.681Z,65.25
2023-02-17T08:22:13.360Z,64.62
2023-02-17T08:23:45.463Z,63.80
2023-02-17T08:25:17.284Z,62.44
2023-02-17T08:26:49.487Z,61.75
2023-02-17T08:28:21.712Z,61.08
2023-02-17T08:29:55.615Z,61.27
2023-02-17T08:31:30.413Z,60.88
2023-02-17T08:33:02.199Z,60.96
2023-02-17T08:34:34.028Z,61.18
2023-02-17T08:36:07.961Z,61.13
2023-02-17T08:37:39.818Z,61.43
2023-02-17T08:39:14.410Z,61.74
2023-02-17T08:40:46.110Z,61.87
2023-02-17T08:42:18.051Z,62.26
2023-02-17T08:43:50.837Z,61.40
2023-02-17T08:45:23.331Z,60.48
2023-02-17T08:46:55.354Z,60.05
2023-02-17T08:48:27.028Z,59.07
2023-02-17T08:49:58.715Z,59.60
2023-02-17T08:51:30.425Z,58.76
2023-02-17T08:53:02.257Z,59.46
2023-02-17T08:54:33.979Z,59.19
2023-02-17T08:56:06.373Z,59.29
2023-02-17T08:57:38.395Z,58.73
2023-02-17T08:59:11.253Z,58.09
2023-02-17T09:00:42.983Z,57.78
2023-02-17T09:02:16.265Z,57.36
2023-02-17T09:03:50.005Z,56.90
2023-02-17T09:05:21.934Z,57.27
2023-02-17T09:06:56.724Z,58.05
2023-02-17T09:08:28.653Z,57.67
2023-02-17T09:10:00.747Z,59.09
2023-02-17T09:11:32.426Z,59.32
2023-02-17T09:13:04.899Z,59.92
2023-02-17T09:14:36.596Z,61.00
2023-02-17T09:16:08.873Z,60.87
2023-02-17T09:17:41.789Z,60.97
2023-02-17T09:19:13.546Z,60.94
2023-02-17T09:20:45.198Z,60.89
2023-02-17T09:22:30.744Z,61.59
2023-02-17T09:24:03.297Z,62.12
2023-02-17T09:25:35.141Z,61.56
2023-02-17T09:27:06.973Z,62.25
2023-02-17T09:28:39.977Z,62.14
2023-02-17T09:30:12.514Z,62.46
2023-02-17T09:31:46.143Z,62.38
2023-02-17T09:33:17.923Z,62.65
2023-02-17T09:34:50.643Z,63.52
2023-02-17T09:36:31.550Z,63.06
2023-02-17T09:38:03.416Z,63.35
2023-02-17T09:39:35.290Z,63.78
2023-02-17T09:41:14.591Z,63.83
2023-02-17T09:42:47.206Z,63.86
2023-02-17T09:44:32.386Z,63.58
2023-02-17T09:46:13.202Z,63.13
2023-02-17T09:47:50.338Z,63.03
2023-02-17T09:49:27.028Z,63.05
2023-02-17T09:51:04.783Z,62.88
2023-02-17T09:52:53.776Z,62.98
2023-02-17T09:54:36.712Z,63.34
2023-02-17T09:56:16.710Z,63.43
2023-02-17T09:57:52.182Z,63.18
2023-02-17T09:59:36.024Z,62.92
2023-02-17T10:01:16.313Z,63.15
2023-02-17T10:03:17.967Z,63.46
2023-02-17T10:04:52.680Z,63.27
2023-02-17T10:06:49.074Z,63.66
2023-02-17T10:08:27.492Z,63.60
2023-02-17T10:10:10.251Z,63.66
2023-02-17T10:11:47.822Z,63.18
2023-02-17T10:13:22.077Z,62.84
2023-02-17T10:15:05.677Z,62.42
2023-02-17T10:16:47.499Z,62.60
2023-02-17T10:18:37.355Z,61.91
2023-02-17T10:20:20.915Z,61.86
2023-02-17T10:22:02.856Z,61.85
2023-02-17T10:23:35.238Z,61.55
2023-02-17T10:25:16.634Z,61.03
2023-02-17T10:26:55.445Z,61.27
2023-02-17T10:29:13.805Z,60.12
2023-02-17T10:31:11.049Z,59.67
2023-02-17T10:33:02.464Z,58.51
2023-02-17T10:34:42.959Z,57.88
2023-02-17T10:36:34.045Z,58.29
2023-02-17T10:38:16.661Z,57.63
2023-02-17T10:39:53.814Z,56.06
2023-02-17T10:41:30.178Z,56.06
2023-02-17T10:43:07.641Z,56.24
2023-02-17T10:44:39.635Z,55.99
2023-02-17T10:46:15.100Z,54.49
2023-02-17T10:47:47.400Z,53.10
2023-02-17T10:49:28.827Z,54.58
2023-02-17T10:51:01.307Z,56.30
2023-02-17T10:52:39.791Z,58.81
2023-02-17T10:54:25.835Z,61.11
2023-02-17T10:56:07.389Z,61.25
2023-02-17T10:57:42.267Z,61.49
2023-02-17T10:59:38.841Z,62.78
2023-02-17T11:01:11.916Z,62.50
2023-02-17T11:02:46.554Z,62.92
2023-02-17T11:04:18.334Z,62.38
2023-02-17T11:06:00.894Z,61.52
2023-02-17T11:07:35.853Z,61.98
2023-02-17T11:09:28.825Z,61.86
2023-02-17T11:11:07.554Z,62.08
2023-02-17T11:12:41.487Z,62.13
2023-02-17T11:14:20.727Z,62.13
2023-02-17T11:15:52.986Z,62.45
2023-02-17T11:17:39.507Z,62.08
2023-02-17T11:19:26.470Z,63.24
2023-02-17T11:21:11.608Z,63.85
2023-02-17T11:22:46.411Z,63.43
2023-02-17T11:24:18.576Z,64.27
2023-02-17T11:26:01.121Z,64.51
2023-02-17T11:27:33.030Z,64.58
2023-02-17T11:29:17.646Z,64.76
2023-02-17T11:30:53.130Z,65.35
2023-02-17T11:32:32.655Z,66.08
2023-02-17T11:34:15.406Z,66.07
2023-02-17T11:35:46.994Z,66.34
2023-02-17T11:37:24.517Z,66.61
2023-02-17T11:38:57.533Z,66.54
2023-02-17T11:40:32.007Z,66.44
2023-02-17T11:42:17.186Z,66.40
2023-02-17T11:43:59.996Z,65.99
2023-02-17T11:45:45.152Z,65.83
2023-02-17T11:47:22.778Z,65.93
2023-02-17T11:49:12.365Z,65.78
2023-02-17T11:51:10.301Z,67.04
2023-02-17T11:52:50.863Z,66.94
2023-02-17T11:54:42.618Z,66.17
2023-02-17T11:56:18.002Z,66.96
2023-02-17T11:58:18.126Z,66.69
2023-02-17T11:59:56.576Z,65.83
2023-02-17T12:01:43.488Z,66.27
2023-02-17T12:03:30.310Z,66.67
2023-02-17T12:05:15.586Z,66.36
2023-02-17T12:07:05.707Z,66.21
2023-02-17T12:08:43.848Z,65.77
2023-02-17T12:10:41.840Z,65.24
2023-02-17T12:12:40.450Z,65.66
2023-02-17T12:14:21.136Z,65.58
2023-02-17T12:16:17.705Z,65.79
2023-02-17T12:17:52.128Z,65.59
2023-02-17T12:20:00.726Z,66.09
2023-02-17T12:21:35.109Z,65.64
2023-02-17T12:23:06.768Z,65.43
2023-02-17T12:25:15.317Z,64.76
2023-02-17T12:27:17.542Z,64.95
2023-02-17T12:28:56.225Z,65.07
2023-02-17T12:30:34.328Z,65.35
2023-02-17T12:32:38.127Z,65.21
2023-02-17T12:34:31.466Z,65.27
2023-02-17T12:36:10.165Z,64.66
2023-02-17T12:37:50.864Z,65.11
2023-02-17T12:40:18.144Z,65.21
2023-02-17T12:42:02.085Z,65.39
2023-02-17T12:43:49.321Z,65.24
2023-02-17T12:45:25.151Z,64.97
2023-02-17T12:47:02.494Z,64.74
2023-02-17T12:48:46.209Z,64.98
2023-02-17T12:50:28.337Z,65.77
2023-02-17T12:52:08.493Z,65.92
2023-02-17T12:53:42.927Z,65.75
2023-02-17T12:55:21.292Z,65.43
2023-02-17T12:57:07.924Z,66.02
2023-02-17T12:58:39.608Z,66.26
2023-02-17T13:00:24.946Z,66.33
2023-02-17T13:02:09.881Z,65.88
2023-02-17T13:03:41.627Z,66.12
2023-02-17T13:05:33.593Z,65.47
2023-02-17T13:07:23.284Z,65.58
2023-02-17T13:09:19.605Z,66.07
2023-02-17T13:11:25.348Z,65.84
2023-02-17T13:13:00.687Z,65.12
2023-02-17T13:14:50.360Z,64.62
2023-02-17T13:16:22.586Z,65.00
2023-02-17T13:18:03.611Z,64.73
2023-02-17T13:19:35.857Z,64.97
2023-02-17T13:21:25.351Z,65.39
2023-02-17T13:23:07.460Z,65.40
2023-02-17T13:24:52.858Z,64.98
2023-02-17T13:26:32.034Z,64.81
2023-02-17T13:28:18.409Z,65.26
2023-02-17T13:30:17.271Z,64.83
2023-02-17T13:32:02.358Z,64.69
2023-02-17T13:33:42.430Z,64.73
2023-02-17T13:35:14.372Z,64.75
2023-02-17T13:36:46.880Z,64.53
2023-02-17T13:38:33.291Z,64.77
2023-02-17T13:40:20.516Z,64.69
2023-02-17T13:41:54.083Z,64.70
2023-02-17T13:43:28.631Z,65.18
2023-02-17T13:45:01.106Z,64.77
2023-02-17T13:46:37.642Z,65.15
2023-02-17T13:48:21.401Z,65.18
2023-02-17T13:49:56.944Z,65.03
2023-02-17T13:51:30.565Z,65.21
2023-02-17T13:53:27.194Z,65.15
2023-02-17T13:55:02.101Z,65.19
2023-02-17T13:56:34.368Z,65.28
2023-02-17T13:58:06.923Z,65.38
2023-02-17T13:59:38.983Z,65.25
2023-02-17T14:01:21.506Z,65.17
2023-02-17T14:02:57.061Z,65.48
2023-02-17T14:04:31.693Z,65.40
2023-02-17T14:06:04.377Z,64.65
2023-02-17T14:07:36.626Z,64.83
2023-02-17T14:09:33.335Z,64.74
2023-02-17T14:11:07.846Z,64.80
2023-02-17T14:12:39.536Z,64.79
2023-02-17T14:14:11.504Z,64.79
2023-02-17T14:15:55.451Z,64.66
2023-02-17T14:17:32.681Z,64.72
2023-02-17T14:19:12.298Z,64.71
2023-02-17T14:20:44.022Z,64.56
2023-02-17T14:22:33.328Z,64.45
2023-02-17T14:24:05.606Z,64.27
2023-02-17T14:25:44.852Z,64.90
2023-02-17T14:27:16.506Z,65.45
2023-02-17T14:28:56.998Z,65.64
2023-02-17T14:30:39.762Z,64.90
2023-02-17T14:32:32.393Z,65.64
2023-02-17T14:34:04.396Z,66.01
2023-02-17T14:35:36.287Z,65.94
2023-02-17T14:37:10.503Z,66.02
2023-02-17T14:38:42.754Z,65.90
2023-02-17T14:40:24.988Z,65.87
2023-02-17T14:41:56.710Z,66.04
2023-02-17T14:43:28.670Z,65.86
2023-02-17T14:45:00.779Z,65.77
2023-02-17T14:46:33.675Z,66.10
2023-02-17T14:48:05.782Z,66.12
2023-02-17T14:49:37.470Z,66.38
2023-02-17T14:51:17.372Z,66.39
2023-02-17T14:52:49.579Z,66.02
2023-02-17T14:54:21.330Z,65.66
2023-02-17T14:55:59.618Z,65.50
2023-02-17T14:57:31.403Z,65.96
2023-02-17T14:59:03.397Z,66.58
2023-02-17T15:00:35.202Z,66.38
2023-02-17T15:02:18.847Z,66.25
2023-02-17T15:03:51.458Z,66.62
2023-02-17T15:05:23.504Z,65.99
2023-02-17T15:06:55.518Z,66.27
2023-02-17T15:08:33.801Z,66.67
2023-02-17T15:10:25.923Z,66.63
2023-02-17T15:11:58.524Z,66.35
2023-02-17T15:13:31.790Z,66.65
2023-02-17T15:15:04.104Z,65.93
2023-02-17T15:16:35.904Z,66.33
2023-02-17T15:18:07.614Z,66.54
2023-02-17T15:19:39.833Z,66.18
2023-02-17T15:21:35.019Z,65.78
2023-02-17T15:23:13.498Z,66.16
2023-02-17T15:24:45.151Z,66.12
2023-02-17T15:26:16.815Z,66.23
2023-02-17T15:27:48.614Z,66.28
2023-02-17T15:29:22.734Z,66.33
2023-02-17T15:30:56.358Z,65.95
2023-02-17T15:32:28.164Z,66.18
2023-02-17T15:34:00.788Z,66.45
2023-02-17T15:35:32.702Z,66.51
2023-02-17T15:37:04.332Z,66.40
2023-02-17T15:38:36.170Z,66.17
2023-02-17T15:40:13.567Z,65.86
2023-02-17T15:41:46.969Z,65.90
2023-02-17T15:43:21.812Z,65.74
2023-02-17T15:44:53.453Z,65.43
2023-02-17T15:46:32.930Z,66.11
2023-02-17T15:48:08.166Z,65.68
2023-02-17T15:49:39.821Z,65.77
2023-02-17T15:51:15.008Z,65.90
2023-02-17T15:52:47.263Z,66.00
2023-02-17T15:54:19.489Z,65.74
2023-02-17T15:55:52.648Z,65.65
2023-02-17T15:57:25.710Z,65.60
2023-02-17T15:59:00.490Z,65.55
2023-02-17T16:00:35.183Z,65.40
2023-02-17T16:02:22.575Z,65.73
2023-02-17T16:03:55.068Z,65.37
2023-02-17T16:05:28.869Z,65.37
2023-02-17T16:07:00.639Z,65.74
2023-02-17T16:08:32.837Z,65.35
2023-02-17T16:10:05.483Z,65.91
2023-02-17T16:11:47.549Z,66.35
2023-02-17T16:13:27.630Z,66.23
2023-02-17T16:14:59.332Z,65.75
2023-02-17T16:16:33.617Z,66.40
2023-02-17T16:18:05.422Z,66.27
2023-02-17T16:19:37.074Z,66.08
2023-02-17T16:21:10.689Z,66.16
2023-02-17T16:22:43.179Z,66.91
2023-02-17T16:24:14.947Z,66.35
2023-02-17T16:25:48.116Z,66.87
2023-02-17T16:27:19.857Z,65.95
2023-02-17T16:28:51.508Z,66.67
2023-02-17T16:30:30.972Z,66.98
2023-02-17T16:32:03.159Z,67.02
2023-02-17T16:33:34.886Z,67.08
2023-02-17T16:35:06.714Z,66.60
2023-02-17T16:36:39.174Z,66.80
2023-02-17T16:38:24.347Z,67.15
2023-02-17T16:39:56.219Z,67.22
2023-02-17T16:41:27.873Z,66.98
2023-02-17T16:43:00.130Z,66.45
2023-02-17T16:44:32.026Z,67.05
2023-02-17T16:46:05.445Z,67.04
2023-02-17T16:47:37.549Z,67.03
2023-02-17T16:49:28.308Z,66.62
2023-02-17T16:51:00.281Z,66.85
2023-02-17T16:52:32.061Z,66.01
2023-02-17T16:54:04.015Z,66.49
2023-02-17T16:55:36.957Z,67.22
2023-02-17T16:57:18.380Z,67.22
2023-02-17T16:58:50.438Z,67.81
2023-02-17T17:00:25.498Z,67.31
2023-02-17T17:01:57.701Z,67.04
2023-02-17T17:03:29.456Z,67.34
2023-02-17T17:05:01.059Z,67.55
2023-02-17T17:06:32.770Z,67.50
2023-02-17T17:08:04.596Z,66.66
2023-02-17T17:09:36.284Z,66.61
2023-02-17T17:11:13.213Z,67.41
2023-02-17T17:12:45.842Z,67.58
2023-02-17T17:14:18.656Z,67.30
2023-02-17T17:15:51.088Z,67.31
2023-02-17T17:17:23.017Z,68.04
2023-02-17T17:18:54.651Z,67.78
2023-02-17T17:20:32.148Z,67.13
2023-02-17T17:22:03.964Z,67.22
2023-02-17T17:23:35.935Z,67.52
2023-02-17T17:25:08.129Z,66.98
2023-02-17T17:26:45.109Z,67.60
2023-02-17T17:28:19.525Z,67.24
2023-02-17T17:29:54.404Z,67.48
2023-02-17T17:31:27.438Z,67.65
2023-02-17T17:32:59.478Z,67.44
2023-02-17T17:34:31.185Z,68.29
2023-02-17T17:36:03.570Z,68.52
2023-02-17T17:37:35.378Z,68.76
2023-02-17T17:39:13.503Z,68.52
2023-02-17T17:40:51.984Z,68.65
2023-02-17T17:42:23.734Z,68.24
2023-02-17T17:43:56.333Z,68.15
2023-02-17T17:45:28.157Z,68.83
2023-02-17T17:46:59.828Z,68.61
2023-02-17T17:48:31.800Z,68.67
2023-02-17T17:50:04.277Z,69.09
2023-02-17T17:51:37.823Z,69.34
2023-02-17T17:53:09.988Z,69.52
2023-02-17T17:54:42.748Z,69.97
2023-02-17T17:56:20.946Z,69.26
2023-02-17T17:57:53.689Z,68.60
2023-02-17T17:59:25.534Z,68.74
2023-02-17T18:00:58.622Z,69.07
2023-02-17T18:02:30.322Z,69.00
2023-02-17T18:04:02.313Z,68.77
2023-02-17T18:05:36.303Z,69.32
2023-02-17T18:07:08.197Z,69.36
2023-02-17T18:08:41.800Z,69.33
2023-02-17T18:10:14.348Z,69.28
2023-02-17T18:11:46.417Z,69.59
2023-02-17T18:13:18.175Z,69.70
2023-02-17T18:14:53.499Z,69.58
2023-02-17T18:16:28.138Z,69.44
2023-02-17T18:17:59.888Z,69.02
2023-02-17T18:19:32.440Z,69.75
2023-02-17T18:21:04.437Z,70.18
2023-02-17T18:22:36.156Z,70.32
2023-02-17T18:24:08.291Z,69.79
2023-02-17T18:25:39.970Z,69.69
2023-02-17T18:27:11.700Z,70.55
2023-02-17T18:28:43.348Z,70.29
2023-02-17T18:30:18.005Z,70.85
2023-02-17T18:31:49.867Z,70.91
2023-02-17T18:33:21.880Z,70.69
2023-02-17T18:34:53.733Z,70.57
2023-02-17T18:36:27.264Z,70.72
2023-02-17T18:37:58.976Z,70.81
2023-02-17T18:39:30.797Z,70.82
2023-02-17T18:41:02.798Z,70.73
2023-02-17T18:42:34.760Z,70.90
2023-02-17T18:44:06.438Z,70.74
2023-02-17T18:45:38.424Z,70.29
2023-02-17T18:47:10.033Z,70.29
2023-02-17T18:48:42.346Z,70.50
2023-02-17T18:50:15.450Z,71.12
2023-02-17T18:51:47.559Z,71.17
2023-02-17T18:53:19.413Z,71.09
2023-02-17T18:54:51.114Z,71.44
2023-02-17T18:56:26.278Z,71.34
2023-02-17T18:57:58.018Z,70.96
2023-02-17T18:59:29.650Z,71.26
2023-02-17T19:01:01.315Z,71.27
2023-02-17T19:02:36.121Z,71.10
2023-02-17T19:04:09.727Z,71.75
2023-02-17T19:05:41.570Z,71.93
2023-02-17T19:07:13.336Z,71.87
2023-02-17T19:08:46.932Z,71.87
2023-02-17T19:10:18.768Z,72.20
2023-02-17T19:11:50.452Z,71.82
2023-02-17T19:13:22.146Z,72.12
2023-02-17T19:14:56.995Z,72.48
2023-02-17T19:16:30.473Z,72.04
2023-02-17T19:18:02.221Z,72.07
2023-02-17T19:19:36.992Z,72.19
2023-02-17T19:21:09.460Z,72.57
2023-02-17T19:22:41.219Z,72.19
2023-02-17T19:24:14.599Z,72.32
2023-02-17T19:25:46.415Z,72.67
2023-02-17T19:27:18.441Z,73.32
2023-02-17T19:28:50.373Z,73.23
2023-02-17T19:30:22.299Z,73.61
2023-02-17T19:31:56.048Z,73.32
2023-02-17T19:33:28.505Z,73.39
2023-02-17T19:35:00.303Z,73.38
2023-02-17T19:36:32.268Z,73.38
2023-02-17T19:38:04.091Z,73.74
2023-02-17T19:39:36.143Z,73.11
2023-02-17T19:41:09.881Z,73.45
2023-02-17T19:42:41.703Z,73.74
2023-02-17T19:44:14.090Z,73.90
2023-02-17T19:45:46.575Z,74.28
2023-02-17T19:47:18.525Z,74.08
2023-02-17T19:48:50.349Z,74.88
2023-02-17T19:50:22.273Z,74.32
2023-02-17T19:51:55.815Z,74.79
2023-02-17T19:53:27.861Z,75.00
2023-02-17T19:54:59.834Z,74.96
2023-02-17T19:56:33.943Z,74.88
2023-02-17T19:58:05.883Z,74.83
2023-02-17T19:59:37.751Z,75.11
2023-02-17T20:01:15.706Z,75.34
2023-02-17T20:02:47.561Z,74.91
2023-02-17T20:04:20.370Z,75.25
2023-02-17T20:05:52.060Z,75.57
2023-02-17T20:07:24.428Z,75.75
2023-02-17T20:09:08.512Z,75.42
2023-02-17T20:10:40.462Z,75.41
2023-02-17T20:12:12.133Z,75.89
2023-02-17T20:13:46.560Z,75.28
2023-02-17T20:15:18.745Z,75.21
2023-02-17T20:16:53.330Z,75.53
2023-02-17T20:18:25.124Z,74.83
2023-02-17T20:19:56.907Z,75.00
2023-02-17T20:21:30.430Z,75.19
2023-02-17T20:23:02.044Z,75.52
2023-02-17T20:24:34.559Z,75.42
2023-02-17T20:26:09.329Z,75.30
2023-02-17T20:27:41.501Z,74.85
2023-02-17T20:29:14.033Z,74.79
2023-02-17T20:30:45.929Z,74.75